createdAt,value
2017-09-27T00:00:43.834Z,1017.8
2017-09-27T00:01:45.451Z,1017.7
2017-09-27T00:02:47.070Z,1017.8
2017-09-27T00:03:48.690Z,1017.8
2017-09-27T00:04:50.311Z,1017.8
2017-09-27T00:05:51.932Z,1017.8
2017-09-27T00:06:53.555Z,1017.8
2017-09-27T00:07:55.175Z,1017.8
2017-09-27T00:08:56.792Z,1017.7
2017-09-27T00:09:58.415Z,1017.8
2017-09-27T00:11:00.045Z,1017.7
2017-09-27T00:12:01.668Z,1017.7
2017-09-27T00:13:03.287Z,1017.7
2017-09-27T00:14:04.910Z,1017.7
2017-09-27T00:15:06.528Z,1017.6
2017-09-27T00:16:08.148Z,1017.7
2017-09-27T00:17:09.775Z,1017.7
2017-09-27T00:18:11.393Z,1017.6
2017-09-27T00:19:13.013Z,1017.7
2017-09-27T00:20:14.632Z,1017.6
2017-09-27T00:21:16.257Z,1017.6
2017-09-27T00:22:17.870Z,1017.7
2017-09-27T00:23:19.490Z,1017.7
2017-09-27T00:24:21.108Z,1017.6
2017-09-27T00:25:22.727Z,1017.6
2017-09-27T00:26:24.374Z,1017.6
2017-09-27T00:27:25.974Z,1017.7
2017-09-27T00:28:27.598Z,1017.6
2017-09-27T00:29:29.215Z,1017.6
2017-09-27T00:30:30.835Z,1017.6
2017-09-27T00:31:32.455Z,1017.7
2017-09-27T00:32:34.074Z,1017.6
2017-09-27T00:33:35.694Z,1017.7
2017-09-27T00:34:37.314Z,1017.6
2017-09-27T00:35:38.937Z,1017.6
2017-09-27T00:36:40.555Z,1017.6
2017-09-27T00:37:42.176Z,1017.6
2017-09-27T00:38:43.797Z,1017.6
2017-09-27T00:39:45.417Z,1017.5
2017-09-27T00:40:47.037Z,1017.5
2017-09-27T00:41:48.656Z,1017.6
2017-09-27T00:42:50.278Z,1017.6
2017-09-27T00:43:51.895Z,1017.6
2017-09-27T00:44:53.515Z,1017.6
2017-09-27T00:45:55.134Z,1017.6
2017-09-27T00:46:56.755Z,1017.6
2017-09-27T00:47:58.376Z,1017.6
2017-09-27T00:48:59.995Z,1017.6
2017-09-27T00:50:01.617Z,1017.6
2017-09-27T00:51:03.235Z,1017.6
2017-09-27T00:52:04.853Z,1017.5
2017-09-27T00:53:06.472Z,1017.6
2017-09-27T00:54:08.091Z,1017.6
2017-09-27T00:55:09.716Z,1017.5
2017-09-27T00:56:11.361Z,1017.6
2017-09-27T00:57:12.952Z,1017.6
2017-09-27T00:58:14.569Z,1017.5
2017-09-27T00:59:16.188Z,1017.5
2017-09-27T01:00:17.807Z,1017.5
2017-09-27T01:01:19.425Z,1017.5
2017-09-27T01:02:21.047Z,1017.5
2017-09-27T01:03:22.667Z,1017.6
2017-09-27T01:04:24.287Z,1017.5
2017-09-27T01:05:25.910Z,1017.5
2017-09-27T01:06:27.530Z,1017.5
2017-09-27T01:07:29.148Z,1017.5
2017-09-27T01:08:30.765Z,1017.5
2017-09-27T01:09:32.387Z,1017.6
2017-09-27T01:10:34.007Z,1017.6
2017-09-27T01:11:35.629Z,1017.5
2017-09-27T01:12:37.250Z,1017.5
2017-09-27T01:13:38.867Z,1017.5
2017-09-27T01:14:40.487Z,1017.5
2017-09-27T01:15:42.108Z,1017.5
2017-09-27T01:16:43.728Z,1017.5
2017-09-27T01:17:45.349Z,1017.5
2017-09-27T01:18:46.969Z,1017.5
2017-09-27T01:19:48.588Z,1017.5
2017-09-27T01:20:50.208Z,1017.5
2017-09-27T01:21:51.824Z,1017.5
2017-09-27T01:22:53.444Z,1017.5
2017-09-27T01:23:55.065Z,1017.5
2017-09-27T01:24:56.687Z,1017.5
2017-09-27T01:25:58.306Z,1017.5
2017-09-27T01:26:59.924Z,1017.5
2017-09-27T01:28:01.543Z,1017.5
2017-09-27T01:29:03.162Z,1017.5
2017-09-27T01:30:04.782Z,1017.5
2017-09-27T01:31:06.403Z,1017.5
2017-09-27T01:32:08.022Z,1017.5
2017-09-27T01:33:09.644Z,1017.6
2017-09-27T01:34:11.262Z,1017.5
2017-09-27T01:35:12.880Z,1017.5
2017-09-27T01:36:14.498Z,1017.5
2017-09-27T01:37:16.118Z,1017.5
2017-09-27T01:38:17.739Z,1017.5
2017-09-27T01:39:19.359Z,1017.5
2017-09-27T01:40:20.979Z,1017.5
2017-09-27T01:41:22.598Z,1017.5
2017-09-27T01:42:24.218Z,1017.5
2017-09-27T01:43:25.834Z,1017.5
2017-09-27T01:44:27.451Z,1017.5
2017-09-27T01:45:29.074Z,1017.5
2017-09-27T01:46:30.694Z,1017.5
2017-09-27T01:47:32.317Z,1017.5
2017-09-27T01:48:33.935Z,1017.5
2017-09-27T01:49:35.553Z,1017.5
2017-09-27T01:50:37.170Z,1017.5
2017-09-27T01:51:38.789Z,1017.5
2017-09-27T01:52:40.408Z,1017.5
2017-09-27T01:53:42.028Z,1017.5
2017-09-27T01:54:43.649Z,1017.6
2017-09-27T01:55:45.266Z,1017.6
2017-09-27T01:56:46.888Z,1017.6
2017-09-27T01:57:48.507Z,1017.6
2017-09-27T01:58:50.124Z,1017.6
2017-09-27T01:59:51.746Z,1017.5
2017-09-27T02:00:53.371Z,1017.6
2017-09-27T02:01:54.989Z,1017.6
2017-09-27T02:02:56.606Z,1017.6
2017-09-27T02:03:58.225Z,1017.5
2017-09-27T02:04:59.846Z,1017.5
2017-09-27T02:06:01.465Z,1017.5
2017-09-27T02:07:03.085Z,1017.5
2017-09-27T02:08:04.707Z,1017.5
2017-09-27T02:09:06.325Z,1017.5
2017-09-27T02:10:07.943Z,1017.5
2017-09-27T02:11:09.562Z,1017.6
2017-09-27T02:12:11.185Z,1017.6
2017-09-27T02:13:12.805Z,1017.6
2017-09-27T02:14:14.422Z,1017.6
2017-09-27T02:15:16.043Z,1017.6
2017-09-27T02:16:17.663Z,1017.6
2017-09-27T02:17:19.279Z,1017.6
2017-09-27T02:18:20.897Z,1017.6
2017-09-27T02:19:22.516Z,1017.6
2017-09-27T02:20:24.132Z,1017.6
2017-09-27T02:21:25.751Z,1017.6
2017-09-27T02:22:27.370Z,1017.6
2017-09-27T02:23:28.997Z,1017.6
2017-09-27T02:24:30.616Z,1017.6
2017-09-27T02:25:32.235Z,1017.6
2017-09-27T02:26:33.856Z,1017.6
2017-09-27T02:27:35.475Z,1017.6
2017-09-27T02:28:37.093Z,1017.6
2017-09-27T02:29:38.715Z,1017.6
2017-09-27T02:30:40.338Z,1017.6
2017-09-27T02:31:41.953Z,1017.6
2017-09-27T02:32:43.572Z,1017.6
2017-09-27T02:33:45.190Z,1017.7
2017-09-27T02:34:46.819Z,1017.7
2017-09-27T02:35:48.429Z,1017.7
2017-09-27T02:36:50.046Z,1017.7
2017-09-27T02:37:51.670Z,1017.7
2017-09-27T02:38:53.288Z,1017.7
2017-09-27T02:39:54.905Z,1017.7
2017-09-27T02:40:56.526Z,1017.7
2017-09-27T02:41:58.148Z,1017.7
2017-09-27T02:42:59.766Z,1017.7
2017-09-27T02:44:01.386Z,1017.7
2017-09-27T02:45:03.009Z,1017.7
2017-09-27T02:46:04.627Z,1017.7
2017-09-27T02:47:06.244Z,1017.7
2017-09-27T02:48:07.863Z,1017.7
2017-09-27T02:49:09.480Z,1017.7
2017-09-27T02:50:11.100Z,1017.7
2017-09-27T02:51:12.718Z,1017.6
2017-09-27T02:52:14.340Z,1017.6
2017-09-27T02:53:15.957Z,1017.6
2017-09-27T02:54:17.577Z,1017.6
2017-09-27T02:55:19.192Z,1017.6
2017-09-27T02:56:20.812Z,1017.6
2017-09-27T02:57:22.432Z,1017.6
2017-09-27T02:58:24.052Z,1017.6
2017-09-27T02:59:25.675Z,1017.6
2017-09-27T03:00:27.294Z,1017.6
2017-09-27T03:01:28.911Z,1017.7
2017-09-27T03:02:30.535Z,1017.7
2017-09-27T03:03:32.153Z,1017.7
2017-09-27T03:04:33.775Z,1017.7
2017-09-27T03:05:35.394Z,1017.7
2017-09-27T03:06:37.014Z,1017.7
2017-09-27T03:07:38.631Z,1017.7
2017-09-27T03:08:40.248Z,1017.7
2017-09-27T03:09:41.866Z,1017.7
2017-09-27T03:10:43.486Z,1017.7
2017-09-27T03:11:45.104Z,1017.7
2017-09-27T03:12:46.724Z,1017.8
2017-09-27T03:13:48.347Z,1017.7
2017-09-27T03:14:49.965Z,1017.7
2017-09-27T03:15:51.584Z,1017.7
2017-09-27T03:16:53.202Z,1017.7
2017-09-27T03:17:54.820Z,1017.7
2017-09-27T03:18:56.440Z,1017.7
2017-09-27T03:19:58.058Z,1017.7
2017-09-27T03:20:59.679Z,1017.7
2017-09-27T03:22:01.297Z,1017.7
2017-09-27T03:23:02.914Z,1017.7
2017-09-27T03:24:04.534Z,1017.7
2017-09-27T03:25:06.154Z,1017.7
2017-09-27T03:26:07.774Z,1017.7
2017-09-27T03:27:09.391Z,1017.7
2017-09-27T03:28:11.025Z,1017.6
2017-09-27T03:29:12.639Z,1017.6
2017-09-27T03:30:14.257Z,1017.6
2017-09-27T03:31:15.875Z,1017.6
2017-09-27T03:32:17.495Z,1017.6
2017-09-27T03:33:19.114Z,1017.6
2017-09-27T03:34:20.733Z,1017.6
2017-09-27T03:35:22.352Z,1017.6
2017-09-27T03:36:23.970Z,1017.6
2017-09-27T03:37:25.590Z,1017.6
2017-09-27T03:38:27.206Z,1017.6
2017-09-27T03:39:28.833Z,1017.6
2017-09-27T03:40:30.460Z,1017.6
2017-09-27T03:41:32.081Z,1017.6
2017-09-27T03:42:33.702Z,1017.6
2017-09-27T03:43:35.321Z,1017.6
2017-09-27T03:44:36.938Z,1017.6
2017-09-27T03:45:38.558Z,1017.5
2017-09-27T03:46:40.177Z,1017.5
2017-09-27T03:47:41.796Z,1017.5
2017-09-27T03:48:43.415Z,1017.6
2017-09-27T03:49:45.039Z,1017.5
2017-09-27T03:50:46.658Z,1017.6
2017-09-27T03:51:48.275Z,1017.5
2017-09-27T03:52:49.893Z,1017.5
2017-09-27T03:53:51.512Z,1017.5
2017-09-27T03:54:53.134Z,1017.5
2017-09-27T03:55:54.759Z,1017.5
2017-09-27T03:56:56.379Z,1017.5
2017-09-27T03:57:57.995Z,1017.5
2017-09-27T03:58:59.612Z,1017.5
2017-09-27T04:00:01.235Z,1017.5
2017-09-27T04:01:02.851Z,1017.4
2017-09-27T04:02:04.469Z,1017.5
2017-09-27T04:03:06.091Z,1017.5
2017-09-27T04:04:07.714Z,1017.5
2017-09-27T04:05:09.332Z,1017.5
2017-09-27T04:06:10.951Z,1017.5
2017-09-27T04:07:12.575Z,1017.5
2017-09-27T04:08:14.190Z,1017.5
2017-09-27T04:09:15.809Z,1017.4
2017-09-27T04:10:17.431Z,1017.5
2017-09-27T04:11:19.055Z,1017.4
2017-09-27T04:12:20.670Z,1017.4
2017-09-27T04:13:22.288Z,1017.4
2017-09-27T04:14:23.910Z,1017.4
2017-09-27T04:15:25.536Z,1017.4
2017-09-27T04:16:27.148Z,1017.4
2017-09-27T04:17:28.772Z,1017.4
2017-09-27T04:18:30.393Z,1017.4
2017-09-27T04:19:32.012Z,1017.4
2017-09-27T04:20:33.634Z,1017.4
2017-09-27T04:21:35.250Z,1017.4
2017-09-27T04:22:36.869Z,1017.4
2017-09-27T04:23:38.490Z,1017.5
2017-09-27T04:24:40.109Z,1017.5
2017-09-27T04:25:41.732Z,1017.5
2017-09-27T04:26:43.352Z,1017.5
2017-09-27T04:27:44.970Z,1017.5
2017-09-27T04:28:46.591Z,1017.5
2017-09-27T04:29:48.211Z,1017.5
2017-09-27T04:30:49.831Z,1017.5
2017-09-27T04:31:51.452Z,1017.4
2017-09-27T04:32:53.077Z,1017.4
2017-09-27T04:33:54.694Z,1017.4
2017-09-27T04:34:56.314Z,1017.4
2017-09-27T04:35:57.937Z,1017.4
2017-09-27T04:36:59.554Z,1017.4
2017-09-27T04:38:01.177Z,1017.4
2017-09-27T04:39:02.810Z,1017.4
2017-09-27T04:40:04.432Z,1017.4
2017-09-27T04:41:06.066Z,1017.4
2017-09-27T04:42:07.682Z,1017.4
2017-09-27T04:43:09.302Z,1017.4
2017-09-27T04:44:10.920Z,1017.3
2017-09-27T04:45:12.540Z,1017.4
2017-09-27T04:46:14.164Z,1017.4
2017-09-27T04:47:15.830Z,1017.4
2017-09-27T04:48:17.446Z,1017.4
2017-09-27T04:49:19.068Z,1017.4
2017-09-27T04:50:20.687Z,1017.4
2017-09-27T04:51:22.306Z,1017.4
2017-09-27T04:52:23.929Z,1017.4
2017-09-27T04:53:25.548Z,1017.4
2017-09-27T04:54:27.165Z,1017.5
2017-09-27T04:55:28.784Z,1017.5
2017-09-27T04:56:30.404Z,1017.5
2017-09-27T04:57:32.019Z,1017.5
2017-09-27T04:58:33.636Z,1017.5
2017-09-27T04:59:35.255Z,1017.5
2017-09-27T05:00:36.876Z,1017.5
2017-09-27T05:01:38.495Z,1017.5
2017-09-27T05:02:40.112Z,1017.5
2017-09-27T05:03:41.826Z,1017.5
2017-09-27T05:04:43.443Z,1017.5
2017-09-27T05:05:45.061Z,1017.5
2017-09-27T05:06:46.681Z,1017.5
2017-09-27T05:07:48.302Z,1017.5
2017-09-27T05:08:49.925Z,1017.5
2017-09-27T05:09:51.542Z,1017.6
2017-09-27T05:10:53.166Z,1017.6
2017-09-27T05:11:54.784Z,1017.6
2017-09-27T05:12:56.406Z,1017.6
2017-09-27T05:13:58.035Z,1017.6
2017-09-27T05:14:59.656Z,1017.6
2017-09-27T05:16:01.279Z,1017.6
2017-09-27T05:17:02.897Z,1017.6
2017-09-27T05:18:04.517Z,1017.6
2017-09-27T05:19:06.141Z,1017.6
2017-09-27T05:20:07.761Z,1017.6
2017-09-27T05:21:09.382Z,1017.6
2017-09-27T05:22:11.029Z,1017.6
2017-09-27T05:23:12.628Z,1017.6
2017-09-27T05:24:14.249Z,1017.6
2017-09-27T05:25:15.871Z,1017.6
2017-09-27T05:26:17.517Z,1017.6
2017-09-27T05:27:19.131Z,1017.6
2017-09-27T05:28:20.753Z,1017.6
2017-09-27T05:29:22.384Z,1017.6
2017-09-27T05:30:24.007Z,1017.6
2017-09-27T05:31:25.629Z,1017.6
2017-09-27T05:32:27.253Z,1017.6
2017-09-27T05:33:28.876Z,1017.6
2017-09-27T05:34:30.498Z,1017.6
2017-09-27T05:35:32.123Z,1017.6
2017-09-27T05:36:33.749Z,1017.7
2017-09-27T05:37:35.376Z,1017.7
2017-09-27T05:38:36.995Z,1017.7
2017-09-27T05:39:38.619Z,1017.7
2017-09-27T05:40:40.246Z,1017.7
2017-09-27T05:41:41.869Z,1017.7
2017-09-27T05:42:43.488Z,1017.7
2017-09-27T05:43:45.112Z,1017.8
2017-09-27T05:44:46.738Z,1017.8
2017-09-27T05:45:48.364Z,1017.8
2017-09-27T05:46:49.985Z,1017.8
2017-09-27T05:47:51.611Z,1017.8
2017-09-27T05:48:53.233Z,1017.8
2017-09-27T05:49:54.879Z,1017.8
2017-09-27T05:50:56.505Z,1017.8
2017-09-27T05:51:58.162Z,1017.9
2017-09-27T05:52:59.838Z,1017.9
2017-09-27T05:54:01.464Z,1017.9
2017-09-27T05:55:03.092Z,1017.9
2017-09-27T05:56:04.750Z,1017.9
2017-09-27T05:57:06.370Z,1017.9
2017-09-27T05:58:08.000Z,1017.9
2017-09-27T05:59:09.623Z,1017.9
2017-09-27T06:00:11.250Z,1017.9
2017-09-27T06:01:12.872Z,1017.9
2017-09-27T06:02:14.493Z,1018.0
2017-09-27T06:03:16.118Z,1017.9
2017-09-27T06:04:17.744Z,1017.9
2017-09-27T06:05:19.373Z,1018.0
2017-09-27T06:06:21.000Z,1018.0
2017-09-27T06:07:22.619Z,1018.0
2017-09-27T06:08:24.245Z,1018.0
2017-09-27T06:09:25.868Z,1018.0
2017-09-27T06:10:27.495Z,1018.0
2017-09-27T06:11:29.119Z,1018.0
2017-09-27T06:12:30.740Z,1018.0
2017-09-27T06:13:32.366Z,1018.1
2017-09-27T06:14:33.994Z,1018.0
2017-09-27T06:15:35.616Z,1018.1
2017-09-27T06:16:37.238Z,1018.1
2017-09-27T06:17:38.864Z,1018.1
2017-09-27T06:18:40.485Z,1018.0
2017-09-27T06:19:42.112Z,1018.1
2017-09-27T06:20:43.740Z,1018.1
2017-09-27T06:21:45.361Z,1018.1
2017-09-27T06:22:46.985Z,1018.1
2017-09-27T06:23:48.609Z,1018.1
2017-09-27T06:24:50.231Z,1018.1
2017-09-27T06:25:51.859Z,1018.1
2017-09-27T06:26:53.484Z,1018.1
2017-09-27T06:27:55.110Z,1018.1
2017-09-27T06:28:56.743Z,1018.1
2017-09-27T06:29:58.366Z,1018.1
2017-09-27T06:30:59.998Z,1018.1
2017-09-27T06:32:01.624Z,1018.2
2017-09-27T06:33:03.250Z,1018.1
2017-09-27T06:34:04.874Z,1018.2
2017-09-27T06:35:06.510Z,1018.1
2017-09-27T06:36:08.133Z,1018.2
2017-09-27T06:37:09.757Z,1018.2
2017-09-27T06:38:11.387Z,1018.2
2017-09-27T06:39:13.010Z,1018.2
2017-09-27T06:40:14.635Z,1018.3
2017-09-27T06:41:16.260Z,1018.3
2017-09-27T06:42:17.887Z,1018.3
2017-09-27T06:43:19.515Z,1018.3
2017-09-27T06:44:21.140Z,1018.3
2017-09-27T06:45:22.765Z,1018.3
2017-09-27T06:46:24.388Z,1018.3
2017-09-27T06:47:26.019Z,1018.3
2017-09-27T06:48:27.644Z,1018.3
2017-09-27T06:49:29.271Z,1018.3
2017-09-27T06:50:30.892Z,1018.3
2017-09-27T06:51:32.520Z,1018.3
2017-09-27T06:52:34.148Z,1018.4
2017-09-27T06:53:35.768Z,1018.4
2017-09-27T06:54:37.405Z,1018.4
2017-09-27T06:55:39.033Z,1018.4
2017-09-27T06:56:40.667Z,1018.4
2017-09-27T06:57:42.291Z,1018.4
2017-09-27T06:58:43.918Z,1018.4
2017-09-27T06:59:45.548Z,1018.4
2017-09-27T07:00:47.169Z,1018.5
2017-09-27T07:01:48.801Z,1018.5
2017-09-27T07:02:50.425Z,1018.5
2017-09-27T07:03:52.053Z,1018.5
2017-09-27T07:04:53.681Z,1018.4
2017-09-27T07:05:55.305Z,1018.4
2017-09-27T07:06:56.932Z,1018.5
2017-09-27T07:07:58.561Z,1018.5
2017-09-27T07:09:00.190Z,1018.5
2017-09-27T07:10:01.818Z,1018.5
2017-09-27T07:11:03.446Z,1018.5
2017-09-27T07:12:05.072Z,1018.5
2017-09-27T07:13:06.698Z,1018.5
2017-09-27T07:14:08.327Z,1018.5
2017-09-27T07:15:09.954Z,1018.5
2017-09-27T07:16:11.585Z,1018.5
2017-09-27T07:17:13.210Z,1018.5
2017-09-27T07:18:14.842Z,1018.5
2017-09-27T07:19:16.469Z,1018.5
2017-09-27T07:20:18.095Z,1018.6
2017-09-27T07:21:19.722Z,1018.5
2017-09-27T07:22:21.351Z,1018.6
2017-09-27T07:23:22.982Z,1018.6
2017-09-27T07:24:24.608Z,1018.6
2017-09-27T07:25:26.237Z,1018.6
2017-09-27T07:26:27.861Z,1018.6
2017-09-27T07:27:29.492Z,1018.6
2017-09-27T07:28:31.121Z,1018.6
2017-09-27T07:29:32.752Z,1018.6
2017-09-27T07:30:34.382Z,1018.7
2017-09-27T07:31:36.041Z,1018.7
2017-09-27T07:32:37.678Z,1018.7
2017-09-27T07:33:39.297Z,1018.7
2017-09-27T07:34:40.927Z,1018.7
2017-09-27T07:35:42.553Z,1018.7
2017-09-27T07:36:44.182Z,1018.7
2017-09-27T07:37:45.810Z,1018.7
2017-09-27T07:38:47.440Z,1018.8
2017-09-27T07:39:49.069Z,1018.8
2017-09-27T07:40:50.705Z,1018.8
2017-09-27T07:41:52.333Z,1018.8
2017-09-27T07:42:53.964Z,1018.8
2017-09-27T07:43:55.600Z,1018.8
2017-09-27T07:44:57.225Z,1018.8
2017-09-27T07:45:58.857Z,1018.9
2017-09-27T07:47:00.484Z,1018.9
2017-09-27T07:48:02.119Z,1018.9
2017-09-27T07:49:03.748Z,1018.8
2017-09-27T07:50:05.387Z,1018.9
2017-09-27T07:51:07.017Z,1018.9
2017-09-27T07:52:08.649Z,1018.9
2017-09-27T07:53:10.282Z,1018.9
2017-09-27T07:54:11.913Z,1019.0
2017-09-27T07:55:13.542Z,1018.9
2017-09-27T07:56:15.173Z,1018.9
2017-09-27T07:57:16.805Z,1018.9
2017-09-27T07:58:18.439Z,1019.0
2017-09-27T07:59:20.092Z,1019.0
2017-09-27T08:00:21.721Z,1019.0
2017-09-27T08:01:23.357Z,1019.0
2017-09-27T08:02:24.987Z,1019.0
2017-09-27T08:03:26.617Z,1019.1
2017-09-27T08:04:28.249Z,1019.0
2017-09-27T08:05:29.880Z,1019.1
2017-09-27T08:06:31.512Z,1019.1
2017-09-27T08:07:33.149Z,1019.1
2017-09-27T08:08:34.796Z,1019.1
2017-09-27T08:09:36.483Z,1019.1
2017-09-27T08:10:38.115Z,1019.0
2017-09-27T08:11:39.747Z,1019.0
2017-09-27T08:12:41.388Z,1019.0
2017-09-27T08:13:43.012Z,1019.1
2017-09-27T08:14:44.649Z,1019.0
2017-09-27T08:15:46.363Z,1019.1
2017-09-27T08:16:48.003Z,1019.1
2017-09-27T08:17:49.635Z,1019.1
2017-09-27T08:18:51.268Z,1019.2
2017-09-27T08:19:52.899Z,1019.1
2017-09-27T08:20:54.532Z,1019.2
2017-09-27T08:21:56.167Z,1019.2
2017-09-27T08:22:57.800Z,1019.2
2017-09-27T08:23:59.430Z,1019.2
2017-09-27T08:25:01.063Z,1019.1
2017-09-27T08:26:02.696Z,1019.2
2017-09-27T08:27:04.343Z,1019.2
2017-09-27T08:28:05.975Z,1019.2
2017-09-27T08:29:07.609Z,1019.1
2017-09-27T08:30:09.249Z,1019.2
2017-09-27T08:31:10.875Z,1019.2
2017-09-27T08:32:12.508Z,1019.2
2017-09-27T08:33:14.141Z,1019.2
2017-09-27T08:34:15.772Z,1019.3
2017-09-27T08:35:17.407Z,1019.2
2017-09-27T08:36:19.039Z,1019.3
2017-09-27T08:37:20.675Z,1019.2
2017-09-27T08:38:22.306Z,1019.2
2017-09-27T08:39:23.940Z,1019.2
2017-09-27T08:40:25.569Z,1019.2
2017-09-27T08:41:27.206Z,1019.2
2017-09-27T08:42:28.837Z,1019.2
2017-09-27T08:43:30.470Z,1019.1
2017-09-27T08:44:32.106Z,1019.2
2017-09-27T08:45:33.737Z,1019.2
2017-09-27T08:46:35.370Z,1019.2
2017-09-27T08:47:36.997Z,1019.3
2017-09-27T08:48:38.639Z,1019.3
2017-09-27T08:49:40.270Z,1019.3
2017-09-27T08:50:41.904Z,1019.3
2017-09-27T08:51:43.540Z,1019.3
2017-09-27T08:52:45.173Z,1019.2
2017-09-27T08:53:46.816Z,1019.1
2017-09-27T08:54:48.448Z,1019.1
2017-09-27T08:55:50.082Z,1019.1
2017-09-27T08:56:51.713Z,1019.1
2017-09-27T08:57:53.345Z,1019.1
2017-09-27T08:58:54.983Z,1019.1
2017-09-27T08:59:56.621Z,1019.0
2017-09-27T09:00:58.250Z,1019.1
2017-09-27T09:01:59.881Z,1019.1
2017-09-27T09:03:01.511Z,1019.1
2017-09-27T09:04:03.149Z,1019.1
2017-09-27T09:05:04.782Z,1019.1
2017-09-27T09:06:06.427Z,1019.1
2017-09-27T09:07:08.056Z,1019.1
2017-09-27T09:08:09.687Z,1019.2
2017-09-27T09:09:11.318Z,1019.2
2017-09-27T09:10:12.948Z,1019.1
2017-09-27T09:11:14.580Z,1019.2
2017-09-27T09:12:16.216Z,1019.2
2017-09-27T09:13:17.854Z,1019.2
2017-09-27T09:14:19.485Z,1019.2
2017-09-27T09:15:21.112Z,1019.3
2017-09-27T09:16:22.744Z,1019.3
2017-09-27T09:17:24.376Z,1019.1
2017-09-27T09:18:26.006Z,1019.1
2017-09-27T09:19:27.641Z,1019.1
2017-09-27T09:20:29.274Z,1019.2
2017-09-27T09:21:30.918Z,1019.2
2017-09-27T09:22:32.583Z,1019.2
2017-09-27T09:23:34.177Z,1019.3
2017-09-27T09:24:35.809Z,1019.3
2017-09-27T09:25:37.444Z,1019.3
2017-09-27T09:26:39.076Z,1019.7
2017-09-27T09:27:40.711Z,1019.7
2017-09-27T09:28:42.342Z,1019.6
2017-09-27T09:29:43.974Z,1019.6
2017-09-27T09:30:45.610Z,1019.3
2017-09-27T09:31:47.239Z,1019.4
2017-09-27T09:32:48.875Z,1019.3
2017-09-27T09:33:50.509Z,1019.3
2017-09-27T09:34:52.142Z,1019.2
2017-09-27T09:35:53.774Z,1019.3
2017-09-27T09:36:55.406Z,1019.1
2017-09-27T09:37:57.040Z,1019.2
2017-09-27T09:38:58.673Z,1019.1
2017-09-27T09:40:00.314Z,1019.0
2017-09-27T09:41:01.948Z,1019.1
2017-09-27T09:42:03.581Z,1019.0
2017-09-27T09:43:05.210Z,1019.1
2017-09-27T09:44:06.876Z,1019.0
2017-09-27T09:45:08.507Z,1019.0
2017-09-27T09:46:10.135Z,1019.0
2017-09-27T09:47:11.769Z,1019.0
2017-09-27T09:48:13.399Z,1019.0
2017-09-27T09:49:15.033Z,1019.0
2017-09-27T09:50:16.661Z,1018.9
2017-09-27T09:51:18.293Z,1018.9
2017-09-27T09:52:19.923Z,1018.9
2017-09-27T09:53:21.554Z,1018.9
2017-09-27T09:54:23.190Z,1018.9
2017-09-27T09:55:24.829Z,1018.9
2017-09-27T09:56:26.460Z,1018.8
2017-09-27T09:57:28.094Z,1018.9
2017-09-27T09:58:29.730Z,1018.9
2017-09-27T09:59:31.393Z,1018.8
2017-09-27T10:00:33.010Z,1018.8
2017-09-27T10:01:34.643Z,1018.8
2017-09-27T10:02:36.274Z,1018.8
2017-09-27T10:03:37.908Z,1018.8
2017-09-27T10:04:39.536Z,1018.7
2017-09-27T10:05:41.165Z,1018.8
2017-09-27T10:06:42.795Z,1018.8
2017-09-27T10:07:44.425Z,1018.8
2017-09-27T10:08:46.056Z,1018.8
2017-09-27T10:09:47.689Z,1018.8
2017-09-27T10:10:49.326Z,1018.8
2017-09-27T10:11:50.959Z,1018.8
2017-09-27T10:12:52.584Z,1018.8
2017-09-27T10:13:54.217Z,1018.8
2017-09-27T10:14:55.852Z,1018.8
2017-09-27T10:15:57.484Z,1018.8
2017-09-27T10:16:59.117Z,1018.8
2017-09-27T10:18:00.749Z,1018.8
2017-09-27T10:19:02.376Z,1018.9
2017-09-27T10:20:04.007Z,1018.9
2017-09-27T10:21:05.638Z,1019.0
2017-09-27T10:22:07.271Z,1019.4
2017-09-27T10:23:08.904Z,1019.7
2017-09-27T10:24:10.538Z,1019.0
2017-09-27T10:25:12.170Z,1018.9
2017-09-27T10:26:13.799Z,1019.2
2017-09-27T10:27:15.430Z,1018.9
2017-09-27T10:28:17.066Z,1019.2
2017-09-27T10:29:18.697Z,1021.5
2017-09-27T10:30:20.329Z,1023.7
2017-09-27T10:31:21.960Z,1025.2
2017-09-27T10:32:23.600Z,1026.0
2017-09-27T10:33:25.231Z,1022.7
2017-09-27T10:34:26.865Z,1020.0
2017-09-27T10:35:28.495Z,1019.3
2017-09-27T10:36:30.127Z,1019.2
2017-09-27T10:37:31.762Z,1019.7
2017-09-27T10:38:33.396Z,1019.9
2017-09-27T10:39:35.029Z,1019.7
2017-09-27T10:40:36.665Z,1019.2
2017-09-27T10:41:38.292Z,1019.1
2017-09-27T10:42:39.923Z,1018.9
2017-09-27T10:43:41.564Z,1019.0
2017-09-27T10:44:43.189Z,1019.0
2017-09-27T10:45:44.824Z,1018.9
2017-09-27T10:46:46.457Z,1019.0
2017-09-27T10:47:48.088Z,1019.0
2017-09-27T10:48:49.718Z,1019.1
2017-09-27T10:49:51.349Z,1019.1
2017-09-27T10:50:52.983Z,1018.9
2017-09-27T10:51:54.614Z,1019.0
2017-09-27T10:52:56.248Z,1019.2
2017-09-27T10:53:57.885Z,1019.2
2017-09-27T10:54:59.523Z,1019.2
2017-09-27T10:56:01.148Z,1018.9
2017-09-27T10:57:02.781Z,1018.9
2017-09-27T10:58:04.412Z,1019.5
2017-09-27T10:59:06.049Z,1018.9
2017-09-27T11:00:07.683Z,1019.8
2017-09-27T11:01:09.315Z,1019.6
2017-09-27T11:02:10.945Z,1020.8
2017-09-27T11:03:12.582Z,1023.5
2017-09-27T11:04:14.218Z,1023.1
2017-09-27T11:05:15.845Z,1019.7
2017-09-27T11:06:17.540Z,1019.4
2017-09-27T11:07:19.122Z,1022.0
2017-09-27T11:08:20.754Z,1023.2
2017-09-27T11:09:22.390Z,1021.0
2017-09-27T11:10:24.021Z,1021.5
2017-09-27T11:11:25.654Z,1025.2
2017-09-27T11:12:27.284Z,1026.7
2017-09-27T11:13:28.921Z,1028.9
2017-09-27T11:14:30.556Z,1030.7
2017-09-27T11:15:32.196Z,1031.5
2017-09-27T11:16:33.829Z,1031.2
2017-09-27T11:17:35.466Z,1030.8
2017-09-27T11:18:37.104Z,1031.3
2017-09-27T11:19:38.744Z,1033.4
2017-09-27T11:20:40.382Z,1034.8
2017-09-27T11:21:42.020Z,1034.5
2017-09-27T11:22:43.658Z,1035.0
2017-09-27T11:23:45.297Z,1034.1
2017-09-27T11:24:46.946Z,1034.6
2017-09-27T11:25:48.585Z,1034.9
2017-09-27T11:26:50.226Z,1034.9
2017-09-27T11:27:51.867Z,1035.6
2017-09-27T11:28:53.505Z,1036.8
2017-09-27T11:29:55.148Z,1037.3
2017-09-27T11:30:56.786Z,1036.7
2017-09-27T11:31:58.426Z,1035.2
2017-09-27T11:33:00.070Z,1037.5
2017-09-27T11:34:01.709Z,1038.9
2017-09-27T11:35:03.357Z,1039.2
2017-09-27T11:36:04.994Z,1039.0
2017-09-27T11:37:06.637Z,1038.6
2017-09-27T11:38:08.277Z,1039.8
2017-09-27T11:39:09.919Z,1040.5
2017-09-27T11:40:11.598Z,1040.5
2017-09-27T11:41:13.241Z,1040.1
2017-09-27T11:42:14.885Z,1039.4
2017-09-27T11:43:16.530Z,1039.9
2017-09-27T11:44:18.177Z,1041.3
2017-09-27T11:45:19.816Z,1041.9
2017-09-27T11:46:21.459Z,1041.5
2017-09-27T11:47:23.104Z,1042.9
2017-09-27T11:48:24.753Z,1037.5
2017-09-27T11:49:26.396Z,1019.5
2017-09-27T11:50:28.039Z,1034.3
2017-09-27T11:51:29.685Z,1041.6
2017-09-27T11:52:31.330Z,1039.7
2017-09-27T11:53:32.968Z,1039.3
2017-09-27T11:54:34.611Z,1041.9
2017-09-27T11:55:36.256Z,1043.0
2017-09-27T11:56:37.899Z,1043.7
2017-09-27T11:57:39.544Z,1044.2
2017-09-27T11:58:41.186Z,1043.6
2017-09-27T11:59:42.828Z,1018.9
2017-09-27T12:00:44.469Z,1018.8
2017-09-27T12:01:46.113Z,1018.8
2017-09-27T12:02:47.757Z,1019.2
2017-09-27T12:03:49.398Z,1042.3
2017-09-27T12:04:51.043Z,1041.5
2017-09-27T12:05:52.688Z,1041.5
2017-09-27T12:06:54.332Z,1039.9
2017-09-27T12:07:55.975Z,1035.2
2017-09-27T12:08:57.645Z,1034.0
2017-09-27T12:09:59.289Z,1039.3
2017-09-27T12:11:00.936Z,1044.9
2017-09-27T12:12:02.581Z,1043.8
2017-09-27T12:13:04.223Z,1043.6
2017-09-27T12:14:05.876Z,1043.6
2017-09-27T12:15:07.509Z,1042.3
2017-09-27T12:16:09.151Z,1045.2
2017-09-27T12:17:10.795Z,1045.8
2017-09-27T12:18:12.439Z,1042.4
2017-09-27T12:19:14.130Z,1046.4
2017-09-27T12:20:15.778Z,1045.8
2017-09-27T12:21:17.423Z,1044.6
2017-09-27T12:22:19.068Z,1042.3
2017-09-27T12:23:20.706Z,1041.8
2017-09-27T12:24:22.350Z,1044.2
2017-09-27T12:25:23.993Z,1020.9
2017-09-27T12:26:25.640Z,1045.2
2017-09-27T12:27:27.465Z,1022.4
2017-09-27T12:28:29.106Z,1033.3
2017-09-27T12:29:30.748Z,1043.3
2017-09-27T12:30:32.392Z,1042.7
2017-09-27T12:31:34.035Z,1037.6
2017-09-27T12:32:35.683Z,1039.8
2017-09-27T12:33:37.322Z,1037.8
2017-09-27T12:34:38.966Z,1020.4
2017-09-27T12:35:40.609Z,1043.2
2017-09-27T12:36:42.251Z,1042.9
2017-09-27T12:37:43.895Z,1044.3
2017-09-27T12:38:45.537Z,1044.2
2017-09-27T12:39:47.185Z,1046.5
2017-09-27T12:40:48.834Z,1046.4
2017-09-27T12:41:50.480Z,1044.2
2017-09-27T12:42:52.123Z,1043.1
2017-09-27T12:43:53.768Z,1042.4
2017-09-27T12:44:55.416Z,1043.0
2017-09-27T12:45:57.060Z,1042.2
2017-09-27T12:46:58.703Z,1040.0
2017-09-27T12:48:00.350Z,1035.0
2017-09-27T12:49:02.252Z,1039.8